Time;durP1;ratioP1;P1;durP2;ratioP2;P2;SDS_P1;SDS_P2;PMS_P1;PMS_P2;Temp;Humidity;BMP_temperature;BMP_pressure;BME280_temperature;BME280_humidity;BME280_pressure;Samples;Min_cycle;Max_cycle;Signal;HPM_P1;HPM_P2
2022/12/24 00:00:07;;;;;;;21.95;4.32;;;;;;;8.96;100.00;100564.00;6250811;22;20016;-77
2022/12/24 00:02:33;;;;;;;18.80;3.58;;;;;;;8.94;100.00;100579.63;6250579;22;20016;-77
2022/12/24 00:05:00;;;;;;;19.63;3.65;;;;;;;8.94;100.00;100567.09;6250662;22;20027;-77
2022/12/24 00:07:28;;;;;;;22.50;3.67;;;;;;;8.93;100.00;100576.22;6250313;22;20021;-77
2022/12/24 00:09:55;;;;;;;21.73;3.78;;;;;;;8.94;100.00;100571.66;6249876;22;20063;-78
2022/12/24 00:12:21;;;;;;;19.55;3.78;;;;;;;8.92;100.00;100574.75;6250404;22;20013;-78
2022/12/24 00:14:48;;;;;;;25.23;4.05;;;;;;;8.93;100.00;100586.84;6250556;22;20012;-78
2022/12/24 00:17:15;;;;;;;24.20;4.10;;;;;;;8.91;100.00;100591.84;6252040;22;20021;-78
2022/12/24 00:19:42;;;;;;;21.20;4.22;;;;;;;8.91;100.00;100585.78;6250385;22;20480;-78
2022/12/24 00:22:09;;;;;;;27.33;4.10;;;;;;;8.89;100.00;100591.53;6250553;22;20017;-78
2022/12/24 00:24:36;;;;;;;19.85;3.42;;;;;;;8.90;100.00;100592.28;6249815;22;20071;-78
2022/12/24 00:27:04;;;;;;;21.02;4.38;;;;;;;8.89;100.00;100594.19;6247911;22;20031;-78
2022/12/24 00:29:32;;;;;;;22.10;4.30;;;;;;;8.89;100.00;100598.75;6222933;22;20021;-78
2022/12/24 00:31:58;;;;;;;25.63;3.83;;;;;;;8.88;100.00;100602.56;6250381;22;20346;-78
2022/12/24 00:34:25;;;;;;;23.75;5.03;;;;;;;8.87;100.00;100593.88;6250135;22;20107;-78
2022/12/24 00:36:51;;;;;;;28.05;4.38;;;;;;;8.86;100.00;100613.63;6250610;22;20021;-78
2022/12/24 00:39:18;;;;;;;28.52;4.60;;;;;;;8.87;100.00;100604.50;6249066;22;20016;-78
2022/12/24 00:41:44;;;;;;;18.48;3.55;;;;;;;8.85;100.00;100617.44;6250697;22;20071;-78
2022/12/24 00:44:11;;;;;;;19.58;3.95;;;;;;;8.83;100.00;100622.44;6250507;22;20024;-77
2022/12/24 00:46:39;;;;;;;29.02;4.35;;;;;;;8.84;100.00;100621.28;6223552;22;20020;-77
2022/12/24 00:49:07;;;;;;;21.73;3.92;;;;;;;8.82;100.00;100625.53;6251341;22;20345;-77
2022/12/24 00:51:34;;;;;;;17.02;3.58;;;;;;;8.81;100.00;100627.44;6251269;22;20060;-77
2022/12/24 00:54:01;;;;;;;19.45;3.78;;;;;;;8.80;100.00;100633.91;6223809;22;20103;-78
2022/12/24 00:56:28;;;;;;;17.08;4.22;;;;;;;8.80;100.00;100643.78;6251256;22;20017;-77
2022/12/24 00:58:55;;;;;;;28.92;3.03;;;;;;;8.79;100.00;100645.00;6251665;22;20013;-77
2022/12/24 01:01:22;;;;;;;29.15;3.88;;;;;;;8.77;100.00;100656.03;6224002;22;20020;-78
2022/12/24 01:03:50;;;;;;;27.90;4.80;;;;;;;8.77;100.00;100655.28;6249851;22;20021;-77
2022/12/24 01:06:19;;;;;;;25.42;4.40;;;;;;;8.75;100.00;100662.94;6251141;22;20071;-78
2022/12/24 01:08:50;;;;;;;23.15;4.43;;;;;;;8.74;100.00;100661.47;6251277;22;20071;-77
2022/12/24 01:11:17;;;;;;;23.48;4.18;;;;;;;8.72;100.00;100671.75;6251174;22;20044;-77
2022/12/24 01:13:43;;;;;;;21.63;4.40;;;;;;;8.68;100.00;100674.53;6251526;22;20016;-78
2022/12/24 01:16:15;;;;;;;28.23;3.70;;;;;;;8.63;100.00;100680.38;6251455;22;20025;-77
2022/12/24 01:18:42;;;;;;;29.02;3.80;;;;;;;8.60;100.00;100691.81;6251794;22;20362;-78
2022/12/24 01:21:08;;;;;;;29.92;4.03;;;;;;;8.55;100.00;100687.78;6251340;22;20013;-77
2022/12/24 01:23:35;;;;;;;26.33;3.78;;;;;;;8.52;100.00;100696.59;6250109;22;20639;-77
2022/12/24 01:26:04;;;;;;;24.75;4.60;;;;;;;8.49;100.00;100700.09;6224209;22;20028;-77
2022/12/24 01:28:31;;;;;;;33.30;5.10;;;;;;;8.46;100.00;100708.16;6250737;22;20012;-78
2022/12/24 01:30:57;;;;;;;33.55;4.55;;;;;;;8.42;100.00;100705.63;6251518;22;20045;-77
2022/12/24 01:33:27;;;;;;;25.90;5.07;;;;;;;8.40;100.00;100710.59;6250893;22;20024;-78
2022/12/24 01:35:54;;;;;;;20.58;3.72;;;;;;;8.38;100.00;100712.97;6251419;22;20023;-78
2022/12/24 01:38:20;;;;;;;23.45;3.72;;;;;;;8.34;100.00;100707.03;6248779;22;20068;-78
2022/12/24 01:43:32;;;;;;;32.35;4.22;;;;;;;8.22;100.00;100710.38;6223827;22;20466;-77
2022/12/24 01:46:04;;;;;;;29.63;4.10;;;;;;;8.15;100.00;100708.66;6221860;22;20079;-78
2022/12/24 01:48:44;;;;;;;28.02;4.18;;;;;;;8.11;100.00;100715.97;6249684;22;20024;-77
2022/12/24 01:51:27;;;;;;;27.83;4.18;;;;;;;8.06;100.00;100723.72;6249948;22;20394;-78
2022/12/24 01:54:02;;;;;;;28.83;4.55;;;;;;;8.01;100.00;100730.28;6248859;22;20392;-78
2022/12/24 01:56:31;;;;;;;32.45;4.63;;;;;;;7.94;100.00;100731.25;6249641;22;20044;-77
2022/12/24 01:59:12;;;;;;;28.10;4.07;;;;;;;7.91;100.00;100731.34;6199400;22;20021;-78
2022/12/24 02:01:39;;;;;;;26.92;4.40;;;;;;;7.88;100.00;100732.16;6250963;22;20040;-78
2022/12/24 02:04:29;;;;;;;24.55;4.60;;;;;;;7.83;100.00;100727.38;6250976;22;20092;-77
2022/12/24 02:06:56;;;;;;;27.77;4.22;;;;;;;7.78;100.00;100735.84;6250731;22;20060;-77
2022/12/24 02:09:23;;;;;;;21.88;4.32;;;;;;;7.74;100.00;100741.25;6250934;22;20446;-77
2022/12/24 02:11:50;;;;;;;28.25;4.10;;;;;;;7.71;100.00;100742.06;6224253;22;20849;-77
2022/12/24 02:14:17;;;;;;;38.22;5.38;;;;;;;7.67;100.00;100750.13;6250846;22;20040;-77
2022/12/24 02:17:04;;;;;;;23.60;3.90;;;;;;;7.64;100.00;100752.84;6251237;22;20469;-77
2022/12/24 02:19:37;;;;;;;25.80;3.70;;;;;;;7.59;100.00;100759.44;6223718;22;20485;-78
2022/12/24 02:22:40;;;;;;;30.75;4.68;;;;;;;7.55;100.00;100766.72;6250865;22;20443;-78
2022/12/24 02:25:54;;;;;;;22.38;4.00;;;;;;;7.51;100.00;100771.38;6250997;22;20877;-78
2022/12/24 02:28:36;;;;;;;23.90;3.83;;;;;;;7.48;100.00;100771.44;6186997;23;20412;-76
2022/12/24 02:31:06;;;;;;;;;;;;;;;7.46;100.00;100777.16;6188056;23;20040;-77
2022/12/24 02:33:40;;;;;;;31.60;4.65;;;;;;;7.44;100.00;100782.13;6187546;23;19921;-77
2022/12/24 02:36:29;;;;;;;27.65;4.10;;;;;;;7.41;100.00;100776.91;6187161;23;20379;-77
2022/12/24 02:39:07;;;;;;;30.17;4.30;;;;;;;7.37;100.00;100774.34;6187219;23;20020;-76
2022/12/24 02:44:29;;;;;;;27.20;3.80;;;;;;;7.32;100.00;100786.19;6187120;23;20097;-76
2022/12/24 02:46:57;;;;;;;28.90;3.83;;;;;;;7.30;100.00;100780.56;6187824;23;20080;-77
2022/12/24 02:49:24;;;;;;;18.63;3.70;;;;;;;7.28;100.00;100782.13;6186730;23;20443;-77
2022/12/24 02:51:50;;;;;;;27.25;4.47;;;;;;;7.25;100.00;100781.06;6187433;23;20101;-76
2022/12/24 02:54:17;;;;;;;26.08;3.83;;;;;;;7.23;100.00;100788.69;6187147;23;20049;-77
2022/12/24 02:57:02;;;;;;;26.00;3.58;;;;;;;7.22;100.00;100791.75;6187548;23;20546;-77
2022/12/24 02:59:40;;;;;;;29.48;4.10;;;;;;;7.21;100.00;100798.19;6187112;23;20029;-76
2022/12/24 03:02:39;;;;;;;26.40;3.67;;;;;;;7.19;100.00;100800.53;6187758;23;20138;-77
2022/12/24 03:05:20;;;;;;;30.25;2.97;;;;;;;7.16;100.00;100807.41;6208398;23;20017;-77
2022/12/24 03:08:12;;;;;;;29.02;4.13;;;;;;;7.14;100.00;100807.06;6217229;23;20546;-76
2022/12/24 03:10:53;;;;;;;25.20;4.53;;;;;;;7.12;100.00;100808.63;6217367;23;20545;-77
2022/12/24 03:13:22;;;;;;;30.60;3.92;;;;;;;7.09;100.00;100804.16;6217317;23;20095;-77
2022/12/24 03:15:50;;;;;;;13.30;2.88;;;;;;;7.08;100.00;100800.78;6217579;23;20021;-77
2022/12/24 03:18:21;;;;;;;16.58;3.60;;;;;;;7.05;100.00;100803.50;6216452;23;20021;-76
2022/12/24 03:21:00;;;;;;;23.67;3.75;;;;;;;7.03;100.00;100793.31;6217842;23;20022;-77
2022/12/24 03:23:26;;;;;;;21.13;3.05;;;;;;;7.01;100.00;100801.69;6217266;23;20025;-77
2022/12/24 03:25:53;;;;;;;22.52;3.75;;;;;;;7.01;100.00;100806.97;6217526;23;20403;-77
2022/12/24 03:28:25;;;;;;;24.88;3.72;;;;;;;7.00;100.00;100808.13;6216717;23;20640;-76
2022/12/24 03:30:52;;;;;;;25.55;3.25;;;;;;;7.00;100.00;100816.06;6217700;23;20471;-77
2022/12/24 03:33:20;;;;;;;31.80;3.40;;;;;;;6.99;100.00;100819.88;6216566;23;20055;-76
2022/12/24 03:35:47;;;;;;;26.10;3.38;;;;;;;7.00;100.00;100824.00;6191999;23;20029;-77
2022/12/24 03:38:13;;;;;;;26.20;4.35;;;;;;;7.01;100.00;100822.84;6217483;23;20048;-76
2022/12/24 03:40:39;;;;;;;17.55;2.80;;;;;;;7.02;100.00;100819.06;6191556;23;20216;-77
2022/12/24 03:43:06;;;;;;;30.90;4.05;;;;;;;7.04;100.00;100821.28;6219833;23;20140;-76
2022/12/24 03:45:32;;;;;;;40.03;4.90;;;;;;;7.06;100.00;100823.53;6219862;22;20096;-76
2022/12/24 03:47:59;;;;;;;26.95;3.55;;;;;;;7.06;100.00;100818.97;6219750;22;20099;-76
2022/12/24 03:50:26;;;;;;;21.70;3.58;;;;;;;7.11;100.00;100828.31;6219918;22;20017;-76
2022/12/24 03:52:53;;;;;;;31.70;4.40;;;;;;;7.15;100.00;100826.34;6220370;22;20024;-76
2022/12/24 03:55:20;;;;;;;28.10;4.80;;;;;;;7.17;100.00;100819.47;6219717;22;20083;-76
2022/12/24 03:57:47;;;;;;;30.33;3.85;;;;;;;7.20;100.00;100831.88;6220464;22;20083;-77
2022/12/24 04:00:14;;;;;;;35.90;4.15;;;;;;;7.25;100.00;100838.56;6218255;23;20443;-77
2022/12/24 04:02:41;;;;;;;40.13;4.72;;;;;;;7.30;100.00;100828.22;6219700;22;20434;-77
2022/12/24 04:05:12;;;;;;;24.75;4.47;;;;;;;7.34;100.00;100828.16;6220140;22;20025;-76
2022/12/24 04:07:38;;;;;;;32.63;4.70;;;;;;;7.40;100.00;100844.28;6219758;22;20021;-77
2022/12/24 04:10:05;;;;;;;31.92;5.45;;;;;;;7.44;100.00;100843.06;6220131;22;20451;-76
2022/12/24 04:12:34;;;;;;;22.92;3.92;;;;;;;7.47;100.00;100846.78;6219789;22;20013;-76
2022/12/24 04:15:01;;;;;;;32.08;4.15;;;;;;;7.52;100.00;100843.63;6220119;22;20013;-77
2022/12/24 04:17:27;;;;;;;26.73;3.88;;;;;;;7.54;100.00;100846.63;6219092;22;20064;-77
2022/12/24 04:19:54;;;;;;;47.10;5.32;;;;;;;7.55;100.00;100840.16;6219321;22;20021;-77
2022/12/24 04:22:21;;;;;;;30.63;4.22;;;;;;;7.57;100.00;100843.13;6219746;23;20013;-77
2022/12/24 04:24:47;;;;;;;35.03;5.10;;;;;;;7.59;100.00;100846.84;6219937;23;20017;-77
2022/12/24 04:27:15;;;;;;;33.95;4.78;;;;;;;7.63;100.00;100850.13;6219720;22;20021;-76
2022/12/24 04:29:42;;;;;;;32.15;4.93;;;;;;;7.65;100.00;100861.06;6219879;22;20017;-76
2022/12/24 04:32:09;;;;;;;39.30;6.32;;;;;;;7.68;100.00;100854.94;6219487;23;20020;-76
2022/12/24 04:34:36;;;;;;;28.70;4.18;;;;;;;7.69;100.00;100853.78;6219796;22;20088;-76
2022/12/24 04:37:02;;;;;;;28.20;4.55;;;;;;;7.72;100.00;100849.56;6219705;22;20017;-76
2022/12/24 04:39:29;;;;;;;34.85;4.38;;;;;;;7.75;100.00;100861.22;6220933;22;20025;-76
2022/12/24 04:41:56;;;;;;;37.28;4.53;;;;;;;7.77;100.00;100867.59;6250543;22;20020;-76
2022/12/24 04:44:22;;;;;;;41.63;4.72;;;;;;;7.77;100.00;100869.50;6249885;22;20063;-76
2022/12/24 04:46:49;;;;;;;24.63;4.00;;;;;;;7.75;100.00;100872.56;6249682;22;20039;-76
2022/12/24 04:49:15;;;;;;;36.03;5.43;;;;;;;7.78;100.00;100868.34;6250018;22;20048;-75
2022/12/24 04:51:42;;;;;;;39.25;4.63;;;;;;;7.80;100.00;100869.44;6250104;22;20075;-76
2022/12/24 04:54:08;;;;;;;27.40;4.55;;;;;;;7.80;100.00;100864.13;6250183;22;20016;-76
2022/12/24 04:56:34;;;;;;;25.23;4.25;;;;;;;7.80;100.00;100866.78;6249745;22;20067;-76
2022/12/24 04:59:01;;;;;;;24.58;3.83;;;;;;;7.80;100.00;100873.97;6250332;22;20752;-76
2022/12/24 05:01:30;;;;;;;27.73;3.88;;;;;;;7.81;100.00;100872.81;6197260;22;20071;-75
2022/12/24 05:03:57;;;;;;;28.00;4.35;;;;;;;7.82;100.00;100874.31;6250176;22;20024;-75
2022/12/24 05:06:28;;;;;;;34.45;5.05;;;;;;;7.82;100.00;100880.34;6222086;22;20055;-75
2022/12/24 05:08:55;;;;;;;28.70;4.78;;;;;;;7.84;100.00;100882.59;6223023;22;20091;-75
2022/12/24 05:11:23;;;;;;;20.58;3.45;;;;;;;7.84;100.00;100875.38;6249905;22;20017;-76
2022/12/24 05:13:49;;;;;;;26.23;4.47;;;;;;;7.86;100.00;100875.72;6249940;22;20354;-75
2022/12/24 05:16:18;;;;;;;31.77;4.00;;;;;;;7.90;100.00;100878.28;6249121;22;20125;-76
2022/12/24 05:18:44;;;;;;;30.42;4.53;;;;;;;7.90;100.00;100870.31;6249880;22;20433;-75
2022/12/24 05:21:20;;;;;;;25.77;4.63;;;;;;;7.91;100.00;100879.78;6250160;22;20012;-76
2022/12/24 05:26:47;;;;;;;31.00;3.90;;;;;;;7.94;100.00;100886.88;6249655;22;20463;-75
2022/12/24 05:29:14;;;;;;;31.77;3.92;;;;;;;7.96;100.00;100892.53;6249186;22;20040;-75
2022/12/24 05:31:42;;;;;;;30.08;4.13;;;;;;;7.97;100.00;100886.06;6249105;22;20013;-77
2022/12/24 05:34:10;;;;;;;21.00;3.78;;;;;;;7.98;100.00;100882.25;6251319;22;20012;-77
2022/12/24 05:36:38;;;;;;;21.70;3.40;;;;;;;7.99;100.00;100889.78;6223603;22;20017;-75
2022/12/24 05:39:05;;;;;;;29.75;4.13;;;;;;;8.02;100.00;100888.19;6251283;22;20025;-75
2022/12/24 05:41:39;;;;;;;26.45;4.43;;;;;;;8.03;100.00;100898.38;6250684;22;20100;-76
2022/12/24 05:44:05;;;;;;;25.13;3.88;;;;;;;8.03;100.00;100905.56;6250519;22;20021;-75
2022/12/24 05:46:32;;;;;;;30.38;3.70;;;;;;;8.05;100.00;100895.31;6250774;22;20027;-76
2022/12/24 05:48:58;;;;;;;25.35;3.80;;;;;;;8.07;100.00;100890.31;6251044;22;20016;-76
2022/12/24 05:51:25;;;;;;;24.48;4.53;;;;;;;8.09;100.00;100893.31;6251106;22;20048;-76
2022/12/24 05:53:51;;;;;;;20.05;3.40;;;;;;;8.09;100.00;100900.50;6251489;22;20447;-76
2022/12/24 05:56:21;;;;;;;36.08;4.70;;;;;;;8.10;100.00;100892.16;6250980;22;20071;-77
2022/12/24 05:58:48;;;;;;;26.70;4.13;;;;;;;8.13;100.00;100891.31;6250627;22;20454;-76
2022/12/24 06:01:15;;;;;;;33.38;4.47;;;;;;;8.15;100.00;100899.59;6251421;22;20506;-76
2022/12/24 06:03:42;;;;;;;30.33;4.38;;;;;;;8.17;100.00;100905.22;6251197;22;20039;-76
2022/12/24 06:06:14;;;;;;;32.13;4.70;;;;;;;8.18;100.00;100912.03;6251029;22;20071;-76
2022/12/24 06:08:41;;;;;;;36.78;4.72;;;;;;;8.19;100.00;100918.81;6250910;22;20016;-76
2022/12/24 06:11:11;;;;;;;29.65;4.55;;;;;;;8.19;100.00;100910.84;6224553;22;20020;-76
2022/12/24 06:13:40;;;;;;;26.42;5.18;;;;;;;8.21;100.00;100907.78;6248632;22;20484;-76
2022/12/24 06:16:10;;;;;;;25.52;4.13;;;;;;;8.21;100.00;100921.03;6251120;22;20513;-76
2022/12/24 06:18:37;;;;;;;35.03;5.35;;;;;;;8.19;100.00;100924.13;6250866;22;20410;-76
2022/12/24 06:21:04;;;;;;;24.73;4.78;;;;;;;8.21;100.00;100923.69;6251186;22;20020;-77
2022/12/24 06:23:34;;;;;;;35.58;4.28;;;;;;;8.21;100.00;100932.41;6250876;22;20024;-77
2022/12/24 06:26:02;;;;;;;30.75;5.25;;;;;;;8.22;100.00;100931.25;6250987;22;20021;-78
2022/12/24 06:28:31;;;;;;;34.58;5.13;;;;;;;8.23;100.00;100926.69;6249933;22;20023;-77
2022/12/24 06:30:57;;;;;;;28.00;5.18;;;;;;;8.24;100.00;100923.59;6251009;22;20016;-77
2022/12/24 06:33:30;;;;;;;34.03;4.80;;;;;;;8.24;100.00;100930.81;6250859;22;20024;-77
2022/12/24 06:35:57;;;;;;;38.08;5.30;;;;;;;8.24;100.00;100941.44;6251021;22;20509;-77
2022/12/24 06:38:24;;;;;;;31.02;4.00;;;;;;;8.24;100.00;100942.19;6250479;22;20024;-77
2022/12/24 06:40:51;;;;;;;38.85;5.40;;;;;;;8.24;100.00;100941.44;6250852;22;20017;-77
2022/12/24 06:43:17;;;;;;;36.80;5.00;;;;;;;8.23;100.00;100932.72;6249955;22;20012;-76
2022/12/24 06:45:45;;;;;;;42.08;4.72;;;;;;;8.24;100.00;100936.13;6251136;22;20020;-77
2022/12/24 06:48:12;;;;;;;30.70;4.57;;;;;;;8.25;100.00;100948.97;6251283;22;20016;-77
2022/12/24 06:50:39;;;;;;;36.72;6.13;;;;;;;8.26;100.00;100947.06;6250679;22;20013;-77
2022/12/24 06:53:06;;;;;;;34.53;5.50;;;;;;;8.27;100.00;100951.19;6251013;22;20387;-77
2022/12/24 06:55:33;;;;;;;50.20;6.45;;;;;;;8.27;100.00;100959.16;6249201;22;20017;-77
2022/12/24 06:57:59;;;;;;;43.38;5.93;;;;;;;8.29;100.00;100954.94;6250731;22;20017;-77
2022/12/24 07:00:26;;;;;;;35.45;5.70;;;;;;;8.30;100.00;100955.69;6250510;22;20013;-77
2022/12/24 07:02:52;;;;;;;32.92;6.22;;;;;;;8.31;100.00;100951.88;6250878;22;20063;-77
2022/12/24 07:05:20;;;;;;;40.10;6.40;;;;;;;8.31;100.00;100957.16;6250479;22;20021;-77
2022/12/24 07:07:47;;;;;;;40.08;5.55;;;;;;;8.31;100.00;100955.25;6223561;22;20434;-77
2022/12/24 07:10:15;;;;;;;34.95;5.47;;;;;;;8.32;100.00;100963.97;6248410;22;20017;-77
2022/12/24 07:12:42;;;;;;;38.35;5.53;;;;;;;8.32;100.00;100963.97;6250915;22;20363;-77
2022/12/24 07:15:10;;;;;;;39.38;5.85;;;;;;;8.31;100.00;100960.56;6250862;22;20013;-77
2022/12/24 07:17:37;;;;;;;51.10;5.35;;;;;;;8.31;100.00;100970.44;6250639;22;20027;-77
2022/12/24 07:20:05;;;;;;;36.70;5.70;;;;;;;8.30;100.00;100964.38;6250900;22;20056;-77
2022/12/24 07:22:32;;;;;;;35.13;5.00;;;;;;;8.31;100.00;100975.72;6250784;22;20013;-77
2022/12/24 07:24:59;;;;;;;37.25;6.22;;;;;;;8.27;100.00;100969.78;6223537;22;20096;-77
2022/12/24 07:27:25;;;;;;;50.13;5.03;;;;;;;8.23;100.00;100977.06;6250346;22;20021;-77
2022/12/24 07:29:52;;;;;;;40.20;5.88;;;;;;;8.22;100.00;100992.22;6250936;22;20012;-77
2022/12/24 07:32:19;;;;;;;47.72;6.10;;;;;;;8.23;100.00;100999.03;6250247;22;20016;-77
2022/12/24 07:34:46;;;;;;;35.67;5.20;;;;;;;8.25;100.00;101003.91;6224013;22;20016;-77
2022/12/24 07:37:12;;;;;;;35.78;5.53;;;;;;;8.24;100.00;101003.19;6250788;22;20028;-77
2022/12/24 07:39:39;;;;;;;37.80;5.90;;;;;;;8.27;100.00;101007.66;6222363;22;20090;-76
2022/12/24 07:42:06;;;;;;;41.65;4.65;;;;;;;8.29;100.00;101015.19;6251049;22;20514;-77
2022/12/24 07:44:34;;;;;;;43.65;5.80;;;;;;;8.30;100.00;101027.28;6223159;22;20024;-79
2022/12/24 07:47:01;;;;;;;43.10;5.28;;;;;;;8.32;100.00;101025.75;6250535;22;20020;-78
2022/12/24 07:49:27;;;;;;;34.17;5.20;;;;;;;8.33;100.00;101023.84;6250521;22;20515;-77
2022/12/24 07:51:54;;;;;;;26.45;4.95;;;;;;;8.33;100.00;101035.19;6224298;22;20035;-77
2022/12/24 07:54:20;;;;;;;36.13;5.70;;;;;;;8.32;100.00;101036.34;6250837;22;20019;-76
2022/12/24 07:56:47;;;;;;;31.60;5.53;;;;;;;8.33;100.00;101045.06;6251534;22;20482;-77
2022/12/24 07:59:14;;;;;;;41.58;6.18;;;;;;;8.33;100.00;101059.06;6251527;22;20421;-77
2022/12/24 08:01:41;;;;;;;28.00;4.82;;;;;;;8.32;100.00;101065.53;6251162;22;20021;-77
2022/12/24 08:04:08;;;;;;;41.60;5.07;;;;;;;8.35;100.00;101070.00;6250326;22;20012;-78
2022/12/24 08:06:34;;;;;;;37.72;5.88;;;;;;;8.34;100.00;101075.72;6250013;22;20020;-77
2022/12/24 08:09:01;;;;;;;45.03;5.88;;;;;;;8.34;100.00;101068.53;6249586;22;20012;-77
2022/12/24 08:11:27;;;;;;;30.95;5.07;;;;;;;8.35;100.00;101077.97;6250629;22;20012;-78
2022/12/24 08:13:54;;;;;;;38.70;5.35;;;;;;;8.35;100.00;101080.63;6250415;22;20091;-78
2022/12/24 08:16:21;;;;;;;41.20;5.53;;;;;;;8.35;100.00;101083.28;6250974;22;20017;-77
2022/12/24 08:18:47;;;;;;;35.40;4.55;;;;;;;8.37;100.00;101084.75;6250926;22;20606;-79
2022/12/24 08:21:14;;;;;;;33.05;4.45;;;;;;;8.36;100.00;101091.97;6224347;22;20461;-78
2022/12/24 08:23:41;;;;;;;39.90;4.93;;;;;;;8.38;100.00;101094.97;6250627;22;20087;-78
2022/12/24 08:26:09;;;;;;;35.38;5.00;;;;;;;8.38;100.00;101104.81;6223788;22;20032;-79
2022/12/24 08:28:36;;;;;;;34.20;5.00;;;;;;;8.40;100.00;101099.84;6250902;22;20012;-78
2022/12/24 08:31:03;;;;;;;34.58;4.63;;;;;;;8.39;100.00;101101.00;6251118;22;20013;-78
2022/12/24 08:33:31;;;;;;;40.75;6.25;;;;;;;8.41;100.00;101103.97;6250977;22;20473;-78
2022/12/24 08:36:00;;;;;;;25.27;4.82;;;;;;;8.44;100.00;101101.25;6250790;22;20021;-78
2022/12/24 08:38:26;;;;;;;36.05;5.60;;;;;;;8.48;100.00;101099.25;6250078;22;20017;-78
2022/12/24 08:40:54;;;;;;;31.80;5.20;;;;;;;8.52;100.00;101099.91;6250483;22;20092;-77
2022/12/24 08:43:21;;;;;;;32.65;4.72;;;;;;;8.55;100.00;101115.00;6251154;22;20040;-78
2022/12/24 08:45:48;;;;;;;37.97;5.28;;;;;;;8.56;100.00;101116.50;6250757;22;20098;-77
2022/12/24 08:48:16;;;;;;;35.33;5.03;;;;;;;8.59;100.00;101120.22;6223623;22;20016;-77
2022/12/24 08:50:43;;;;;;;42.60;5.35;;;;;;;8.61;100.00;101123.22;6250734;22;20399;-79
2022/12/24 08:53:10;;;;;;;33.30;4.88;;;;;;;8.64;100.00;101130.34;6250263;22;20434;-77
2022/12/24 08:55:36;;;;;;;31.45;4.82;;;;;;;8.65;100.00;101134.50;6250475;22;20016;-76
2022/12/24 08:58:03;;;;;;;34.30;5.90;;;;;;;8.65;100.00;101135.25;6250652;22;20454;-77
2022/12/24 09:00:30;;;;;;;39.00;6.15;;;;;;;8.69;100.00;101137.81;6250574;22;20017;-78
2022/12/24 09:02:56;;;;;;;27.65;5.43;;;;;;;8.72;100.00;101142.28;6250593;22;20096;-77
2022/12/24 09:05:24;;;;;;;31.90;5.40;;;;;;;8.76;100.00;101150.16;6250601;22;20059;-78
2022/12/24 09:07:51;;;;;;;37.17;5.88;;;;;;;8.80;100.00;101150.81;6251014;22;20431;-77
2022/12/24 09:10:18;;;;;;;33.42;5.40;;;;;;;8.80;100.00;101151.53;6251583;22;20023;-76
2022/12/24 09:12:45;;;;;;;30.65;6.20;;;;;;;8.83;100.00;101165.91;6224615;22;20036;-76
2022/12/24 09:15:13;;;;;;;25.67;5.28;;;;;;;8.83;100.00;101174.59;6224645;22;20112;-77
2022/12/24 09:17:39;;;;;;;33.65;5.93;;;;;;;8.85;100.00;101169.63;6251984;22;20709;-76
2022/12/24 09:20:07;;;;;;;31.42;4.97;;;;;;;8.86;100.00;101176.44;6225075;22;20013;-75
2022/12/24 09:22:35;;;;;;;31.38;5.65;;;;;;;8.87;100.00;101169.22;6224054;22;20128;-76
2022/12/24 09:25:03;;;;;;;40.65;6.30;;;;;;;8.87;100.00;101172.63;6251852;22;20021;-76
2022/12/24 09:27:30;;;;;;;30.77;5.95;;;;;;;8.91;100.00;101183.91;6251758;22;20017;-76
2022/12/24 09:29:57;;;;;;;44.53;6.07;;;;;;;8.95;100.00;101183.81;6251571;22;20101;-76
2022/12/24 09:32:23;;;;;;;25.38;5.22;;;;;;;8.98;100.00;101191.69;6251844;22;20048;-75
2022/12/24 09:34:50;;;;;;;38.90;6.00;;;;;;;9.00;100.00;101191.28;6251838;22;20529;-76
2022/12/24 09:37:16;;;;;;;40.15;6.82;;;;;;;8.99;100.00;101190.53;6251347;22;20513;-76
2022/12/24 09:39:43;;;;;;;31.00;5.00;;;;;;;9.02;100.00;101194.28;6224338;22;20042;-76
2022/12/24 09:42:47;;;;;;;30.65;5.10;;;;;;;9.07;100.00;101201.72;6251970;22;20402;-76
2022/12/24 09:45:34;;;;;;;22.98;4.00;;;;;;;9.12;100.00;101211.84;6251817;22;20395;-76
2022/12/24 09:48:09;;;;;;;35.67;5.15;;;;;;;9.13;100.00;101223.97;6249839;22;20020;-76
2022/12/24 09:50:59;;;;;;;29.75;5.13;;;;;;;9.13;100.00;101231.19;6251214;22;20074;-77
2022/12/24 09:53:39;;;;;;;26.13;4.78;;;;;;;9.11;100.00;101228.94;6251802;22;20435;-76
2022/12/24 09:56:14;;;;;;;35.22;5.43;;;;;;;9.10;100.00;101219.50;6251803;22;20017;-75
2022/12/24 09:58:50;;;;;;;23.40;5.15;;;;;;;9.11;100.00;101222.91;6251917;22;20016;-76
2022/12/24 10:01:17;;;;;;;27.05;4.45;;;;;;;9.15;100.00;101218.25;6250150;22;20421;-76
2022/12/24 10:03:45;;;;;;;24.77;4.32;;;;;;;9.20;100.00;101225.69;6251584;22;20012;-76
2022/12/24 10:06:38;;;;;;;26.95;4.90;;;;;;;9.24;100.00;101221.78;6250983;22;20051;-76
2022/12/24 10:09:11;;;;;;;33.70;5.20;;;;;;;9.24;100.00;101229.00;6251758;22;20438;-76
2022/12/24 10:11:43;;;;;;;28.98;5.78;;;;;;;9.21;100.00;101222.59;6224934;22;20013;-75
2022/12/24 10:14:16;;;;;;;27.98;4.20;;;;;;;9.19;100.00;101227.63;6224906;22;20481;-76
2022/12/24 10:16:55;;;;;;;34.80;5.38;;;;;;;9.23;100.00;101230.16;6251380;22;20103;-74
2022/12/24 10:19:32;;;;;;;31.70;4.55;;;;;;;9.39;100.00;101237.38;6248900;22;20028;-76
2022/12/24 10:22:10;;;;;;;29.13;4.68;;;;;;;9.45;100.00;101231.13;6251635;22;20009;-76
2022/12/24 10:25:09;;;;;;;27.77;4.53;;;;;;;9.50;100.00;101235.19;6251588;22;20024;-76
2022/12/24 10:27:39;;;;;;;24.80;4.95;;;;;;;9.55;100.00;101224.78;6187846;23;20037;-76
2022/12/24 10:30:14;;;;;;;30.27;4.57;;;;;;;9.60;100.00;101232.22;6187998;23;20081;-76
2022/12/24 10:32:44;;;;;;;26.65;4.60;;;;;;;9.67;100.00;101216.09;6187795;23;20109;-76
2022/12/24 10:35:13;;;;;;;27.17;4.90;;;;;;;9.71;100.00;101226.63;6187630;23;20029;-77
2022/12/24 10:37:41;;;;;;;27.30;4.57;;;;;;;9.76;100.00;101220.81;6187910;23;20033;-76
2022/12/24 10:40:15;;;;;;;35.80;5.18;;;;;;;9.79;100.00;101229.84;6187478;23;20017;-76
2022/12/24 10:42:42;;;;;;;28.45;5.28;;;;;;;9.74;100.00;101230.38;6186382;23;20036;-77
2022/12/24 10:45:20;;;;;;;25.30;4.93;;;;;;;9.72;100.00;101238.03;6187732;23;20041;-76
2022/12/24 10:47:51;;;;;;;22.35;4.95;;;;;;;9.70;100.00;101243.75;6187613;23;20029;-75
2022/12/24 10:50:28;;;;;;;34.65;5.00;;;;;;;9.71;100.00;101239.94;6188103;23;20021;-76
2022/12/24 10:53:03;;;;;;;31.70;5.00;;;;;;;9.70;100.00;101241.84;6188214;23;20024;-77
2022/12/24 10:55:30;;;;;;;24.00;4.25;;;;;;;9.70;100.00;101235.78;6187969;23;20021;-77
2022/12/24 10:58:03;;;;;;;30.90;4.82;;;;;;;9.73;100.00;101231.53;6188101;23;20022;-77
2022/12/24 11:00:31;;;;;;;36.63;5.03;;;;;;;9.74;100.00;101241.75;6188184;23;20072;-77
2022/12/24 11:03:29;;;;;;;27.33;4.90;;;;;;;9.73;100.00;101250.88;6192541;22;20022;-76
2022/12/24 11:06:15;;;;;;;29.30;4.40;;;;;;;9.78;100.00;101249.63;6244602;22;20032;-76
2022/12/24 11:08:44;;;;;;;22.52;4.38;;;;;;;9.78;100.00;101252.28;6251441;22;20016;-77
2022/12/24 11:11:16;;;;;;;22.27;3.97;;;;;;;9.77;100.00;101248.88;6251547;22;20435;-77
2022/12/24 11:13:50;;;;;;;26.33;5.03;;;;;;;9.77;100.00;101245.47;6249968;22;20012;-77
2022/12/24 11:16:26;;;;;;;32.67;5.20;;;;;;;9.76;100.00;101238.66;6251445;22;20021;-78
2022/12/24 11:18:55;;;;;;;28.15;4.35;;;;;;;9.73;100.00;101242.16;6250766;22;20977;-81
2022/12/24 11:21:31;;;;;;;26.20;4.22;;;;;;;9.66;100.00;101243.84;6225497;22;20024;-78
2022/12/24 11:24:18;;;;;;;26.30;4.57;;;;;;;9.65;100.00;101233.63;6252212;22;20017;-78
2022/12/24 11:26:44;;;;;;;23.65;4.22;;;;;;;9.67;100.00;101245.34;6251213;22;20021;-77
2022/12/24 11:29:13;;;;;;;28.48;4.65;;;;;;;9.70;100.00;101239.19;6251119;22;20020;-76
2022/12/24 11:31:41;;;;;;;25.95;4.30;;;;;;;9.68;100.00;101244.19;6255219;22;20715;-77
2022/12/24 11:34:25;;;;;;;21.48;4.95;;;;;;;9.68;100.00;101249.50;6251183;22;20128;-78
2022/12/24 11:36:53;;;;;;;29.40;4.40;;;;;;;9.67;100.00;101252.56;6251258;22;20017;-78